sensor_id;sensor_type;location;lat;lon;timestamp;pressure;altitude;pressure_sealevel;temperature;humidity
34237;BME280;20501;45.956;13.632;2022-10-26T00:00:49;101168.34;;;15.54;77.48
34237;BME280;20501;45.956;13.632;2022-10-26T00:03:15;101170.31;;;16.14;77.26
34237;BME280;20501;45.956;13.632;2022-10-26T00:05:41;101165.59;;;15.72;78.66
34237;BME280;20501;45.956;13.632;2022-10-26T00:08:07;101176.25;;;15.21;81.72
34237;BME280;20501;45.956;13.632;2022-10-26T00:10:34;101173.28;;;15.14;80.17
34237;BME280;20501;45.956;13.632;2022-10-26T00:13:00;101171.88;;;15.46;80.81
34237;BME280;20501;45.956;13.632;2022-10-26T00:15:26;101163.41;;;15.75;80.99
34237;BME280;20501;45.956;13.632;2022-10-26T00:17:52;101164.19;;;15.68;79.48
34237;BME280;20501;45.956;13.632;2022-10-26T00:20:17;101164.09;;;15.51;78.98
34237;BME280;20501;45.956;13.632;2022-10-26T00:22:42;101166.09;;;15.93;80.20
34237;BME280;20501;45.956;13.632;2022-10-26T00:25:08;101166.66;;;15.35;78.93
34237;BME280;20501;45.956;13.632;2022-10-26T00:27:33;101174.22;;;16.12;80.44
34237;BME280;20501;45.956;13.632;2022-10-26T00:30:05;101169.81;;;15.84;80.55
34237;BME280;20501;45.956;13.632;2022-10-26T00:32:32;101165.75;;;15.44;77.69
34237;BME280;20501;45.956;13.632;2022-10-26T00:34:57;101165.66;;;15.36;82.04
34237;BME280;20501;45.956;13.632;2022-10-26T00:37:22;101167.13;;;15.48;78.21
34237;BME280;20501;45.956;13.632;2022-10-26T00:39:48;101177.13;;;15.03;80.78
34237;BME280;20501;45.956;13.632;2022-10-26T00:42:17;101174.16;;;14.96;82.53
34237;BME280;20501;45.956;13.632;2022-10-26T00:47:37;101178.34;;;14.91;80.57
34237;BME280;20501;45.956;13.632;2022-10-26T00:52:54;101171.44;;;15.32;79.12
34237;BME280;20501;45.956;13.632;2022-10-26T00:55:25;101163.56;;;15.29;79.19
34237;BME280;20501;45.956;13.632;2022-10-26T00:57:52;101171.91;;;15.10;82.52
34237;BME280;20501;45.956;13.632;2022-10-26T01:00:18;101172.13;;;14.80;80.71
34237;BME280;20501;45.956;13.632;2022-10-26T01:02:45;101166.50;;;15.54;81.26
34237;BME280;20501;45.956;13.632;2022-10-26T01:05:13;101165.44;;;14.65;81.34
34237;BME280;20501;45.956;13.632;2022-10-26T01:07:40;101160.13;;;14.91;83.73
34237;BME280;20501;45.956;13.632;2022-10-26T01:10:07;101163.00;;;14.72;81.36
34237;BME280;20501;45.956;13.632;2022-10-26T01:12:33;101164.28;;;14.95;81.16
34237;BME280;20501;45.956;13.632;2022-10-26T01:14:59;101156.56;;;15.71;81.52
34237;BME280;20501;45.956;13.632;2022-10-26T01:20:37;101152.97;;;15.89;78.82
34237;BME280;20501;45.956;13.632;2022-10-26T01:34:29;101165.56;;;16.16;74.89
34237;BME280;20501;45.956;13.632;2022-10-26T01:37:01;101162.44;;;16.11;79.12
34237;BME280;20501;45.956;13.632;2022-10-26T01:39:54;101169.47;;;16.65;77.04
34237;BME280;20501;45.956;13.632;2022-10-26T01:42:22;101164.56;;;16.25;75.34
34237;BME280;20501;45.956;13.632;2022-10-26T01:45:00;101161.97;;;15.45;78.17
34237;BME280;20501;45.956;13.632;2022-10-26T01:47:29;101159.91;;;15.02;79.28
34237;BME280;20501;45.956;13.632;2022-10-26T01:49:57;101174.28;;;15.49;81.06
34237;BME280;20501;45.956;13.632;2022-10-26T01:52:23;101168.22;;;14.83;80.39
34237;BME280;20501;45.956;13.632;2022-10-26T01:54:49;101167.75;;;15.42;79.01
34237;BME280;20501;45.956;13.632;2022-10-26T01:57:18;101164.59;;;15.99;79.50
34237;BME280;20501;45.956;13.632;2022-10-26T02:00:04;101172.94;;;16.24;79.09
34237;BME280;20501;45.956;13.632;2022-10-26T02:10:25;101170.13;;;15.00;79.46
34237;BME280;20501;45.956;13.632;2022-10-26T02:18:30;101150.94;;;15.91;80.02
34237;BME280;20501;45.956;13.632;2022-10-26T02:21:04;101150.25;;;15.44;81.31
34237;BME280;20501;45.956;13.632;2022-10-26T02:23:32;101142.66;;;15.56;78.28
34237;BME280;20501;45.956;13.632;2022-10-26T02:26:00;101138.31;;;16.16;77.24
34237;BME280;20501;45.956;13.632;2022-10-26T02:28:35;101142.41;;;15.68;79.03
34237;BME280;20501;45.956;13.632;2022-10-26T02:31:03;101140.84;;;16.18;78.32
34237;BME280;20501;45.956;13.632;2022-10-26T02:33:32;101146.59;;;16.41;77.49
34237;BME280;20501;45.956;13.632;2022-10-26T02:36:00;101134.13;;;16.47;76.76
34237;BME280;20501;45.956;13.632;2022-10-26T02:38:28;101128.28;;;16.93;76.21
34237;BME280;20501;45.956;13.632;2022-10-26T02:40:55;101123.06;;;16.40;74.78
34237;BME280;20501;45.956;13.632;2022-10-26T02:43:22;101107.06;;;15.50;77.52
34237;BME280;20501;45.956;13.632;2022-10-26T02:45:52;101108.19;;;15.65;76.58
34237;BME280;20501;45.956;13.632;2022-10-26T02:48:19;101102.72;;;14.76;79.34
34237;BME280;20501;45.956;13.632;2022-10-26T02:50:56;101107.88;;;15.42;79.99
34237;BME280;20501;45.956;13.632;2022-10-26T02:53:35;101102.25;;;14.99;79.26
34237;BME280;20501;45.956;13.632;2022-10-26T02:56:07;101105.47;;;15.91;78.05
34237;BME280;20501;45.956;13.632;2022-10-26T02:58:38;101098.69;;;15.43;77.05
34237;BME280;20501;45.956;13.632;2022-10-26T03:01:05;101109.25;;;15.99;80.17
34237;BME280;20501;45.956;13.632;2022-10-26T03:03:32;101121.03;;;14.74;79.58
34237;BME280;20501;45.956;13.632;2022-10-26T03:05:58;101137.47;;;15.00;80.62
34237;BME280;20501;45.956;13.632;2022-10-26T03:08:23;101136.38;;;15.82;79.54
34237;BME280;20501;45.956;13.632;2022-10-26T03:10:48;101139.47;;;16.65;76.03
34237;BME280;20501;45.956;13.632;2022-10-26T03:13:14;101130.59;;;15.32;78.69
34237;BME280;20501;45.956;13.632;2022-10-26T03:15:39;101135.34;;;16.01;79.43
34237;BME280;20501;45.956;13.632;2022-10-26T03:18:05;101126.91;;;15.15;78.05
34237;BME280;20501;45.956;13.632;2022-10-26T03:20:31;101125.47;;;16.08;78.99
34237;BME280;20501;45.956;13.632;2022-10-26T03:22:56;101120.75;;;16.70;76.90
34237;BME280;20501;45.956;13.632;2022-10-26T03:25:23;101119.13;;;16.94;75.92
34237;BME280;20501;45.956;13.632;2022-10-26T03:27:59;101127.75;;;16.21;76.02
34237;BME280;20501;45.956;13.632;2022-10-26T03:30:25;101127.94;;;15.67;77.68
34237;BME280;20501;45.956;13.632;2022-10-26T03:32:50;101116.63;;;15.80;79.09
34237;BME280;20501;45.956;13.632;2022-10-26T03:35:16;101110.06;;;15.91;78.92
34237;BME280;20501;45.956;13.632;2022-10-26T03:37:41;101108.78;;;16.54;77.45
34237;BME280;20501;45.956;13.632;2022-10-26T03:40:07;101114.59;;;16.60;76.41
34237;BME280;20501;45.956;13.632;2022-10-26T03:42:35;101115.94;;;16.55;75.57
34237;BME280;20501;45.956;13.632;2022-10-26T03:45:01;101118.78;;;17.13;75.11
34237;BME280;20501;45.956;13.632;2022-10-26T03:47:26;101126.28;;;17.03;73.87
34237;BME280;20501;45.956;13.632;2022-10-26T03:49:52;101133.72;;;16.76;73.27
34237;BME280;20501;45.956;13.632;2022-10-26T03:52:17;101133.44;;;17.12;75.49
34237;BME280;20501;45.956;13.632;2022-10-26T03:54:42;101147.53;;;16.75;75.29
34237;BME280;20501;45.956;13.632;2022-10-26T03:57:08;101137.19;;;16.01;75.42
34237;BME280;20501;45.956;13.632;2022-10-26T03:59:33;101143.84;;;16.06;78.99
34237;BME280;20501;45.956;13.632;2022-10-26T04:01:59;101143.88;;;16.15;78.00
34237;BME280;20501;45.956;13.632;2022-10-26T04:04:24;101145.31;;;15.04;77.94
34237;BME280;20501;45.956;13.632;2022-10-26T04:06:50;101154.09;;;14.97;81.91
34237;BME280;20501;45.956;13.632;2022-10-26T04:09:15;101137.22;;;14.48;80.09
34237;BME280;20501;45.956;13.632;2022-10-26T04:11:40;101139.31;;;15.00;81.20
34237;BME280;20501;45.956;13.632;2022-10-26T04:14:06;101131.72;;;15.48;77.16
34237;BME280;20501;45.956;13.632;2022-10-26T04:16:31;101121.72;;;16.01;77.55
34237;BME280;20501;45.956;13.632;2022-10-26T04:18:57;101124.81;;;16.74;76.26
34237;BME280;20501;45.956;13.632;2022-10-26T04:21:22;101123.38;;;16.37;73.74
34237;BME280;20501;45.956;13.632;2022-10-26T04:23:47;101110.41;;;14.99;77.70
34237;BME280;20501;45.956;13.632;2022-10-26T04:26:13;101115.59;;;15.28;80.19
34237;BME280;20501;45.956;13.632;2022-10-26T04:28:38;101120.97;;;15.65;78.64
34237;BME280;20501;45.956;13.632;2022-10-26T04:31:03;101126.06;;;15.94;78.68
34237;BME280;20501;45.956;13.632;2022-10-26T04:33:29;101130.50;;;15.42;76.90
34237;BME280;20501;45.956;13.632;2022-10-26T04:36:00;101123.41;;;16.02;75.67
34237;BME280;20501;45.956;13.632;2022-10-26T04:38:26;101112.44;;;15.68;77.69
34237;BME280;20501;45.956;13.632;2022-10-26T04:40:52;101112.13;;;15.44;76.74
34237;BME280;20501;45.956;13.632;2022-10-26T04:43:17;101102.53;;;15.58;77.08
34237;BME280;20501;45.956;13.632;2022-10-26T04:45:42;101112.16;;;16.40;74.71
34237;BME280;20501;45.956;13.632;2022-10-26T04:48:12;101108.41;;;16.41;75.37
34237;BME280;20501;45.956;13.632;2022-10-26T04:50:38;101115.84;;;15.88;75.97
34237;BME280;20501;45.956;13.632;2022-10-26T04:53:08;101118.56;;;15.88;77.05
34237;BME280;20501;45.956;13.632;2022-10-26T04:55:34;101115.50;;;15.38;77.30
34237;BME280;20501;45.956;13.632;2022-10-26T04:58:00;101115.31;;;16.19;77.91
34237;BME280;20501;45.956;13.632;2022-10-26T05:00:26;101108.00;;;16.19;77.58
34237;BME280;20501;45.956;13.632;2022-10-26T05:03:00;101115.31;;;15.58;75.80
34237;BME280;20501;45.956;13.632;2022-10-26T05:05:27;101131.25;;;15.79;79.54
34237;BME280;20501;45.956;13.632;2022-10-26T05:07:54;101120.22;;;14.92;78.14
34237;BME280;20501;45.956;13.632;2022-10-26T05:10:20;101114.88;;;15.26;79.62
34237;BME280;20501;45.956;13.632;2022-10-26T05:12:50;101122.75;;;15.11;81.84
34237;BME280;20501;45.956;13.632;2022-10-26T05:15:16;101141.22;;;14.99;81.00
34237;BME280;20501;45.956;13.632;2022-10-26T05:17:41;101143.69;;;14.93;80.44
34237;BME280;20501;45.956;13.632;2022-10-26T05:20:07;101141.59;;;15.49;76.53
34237;BME280;20501;45.956;13.632;2022-10-26T05:22:37;101157.91;;;15.05;78.24
34237;BME280;20501;45.956;13.632;2022-10-26T05:25:02;101156.84;;;14.42;80.35
34237;BME280;20501;45.956;13.632;2022-10-26T05:27:28;101165.41;;;14.19;80.86
34237;BME280;20501;45.956;13.632;2022-10-26T05:29:53;101157.41;;;14.17;81.53
34237;BME280;20501;45.956;13.632;2022-10-26T05:32:19;101151.53;;;14.78;80.76
34237;BME280;20501;45.956;13.632;2022-10-26T05:34:44;101150.97;;;14.74;81.26
34237;BME280;20501;45.956;13.632;2022-10-26T05:37:09;101155.88;;;15.43;79.84
34237;BME280;20501;45.956;13.632;2022-10-26T05:39:35;101144.28;;;14.86;78.74
34237;BME280;20501;45.956;13.632;2022-10-26T05:42:00;101148.19;;;15.02;81.82
34237;BME280;20501;45.956;13.632;2022-10-26T05:44:26;101155.41;;;15.74;79.34
34237;BME280;20501;45.956;13.632;2022-10-26T05:46:51;101158.50;;;16.05;76.29
34237;BME280;20501;45.956;13.632;2022-10-26T05:49:17;101164.72;;;15.89;78.42
34237;BME280;20501;45.956;13.632;2022-10-26T05:51:42;101155.41;;;16.00;74.38
34237;BME280;20501;45.956;13.632;2022-10-26T05:54:07;101150.81;;;15.30;77.59
34237;BME280;20501;45.956;13.632;2022-10-26T05:56:38;101159.22;;;15.63;79.85
34237;BME280;20501;45.956;13.632;2022-10-26T05:59:10;101165.50;;;15.82;76.56
34237;BME280;20501;45.956;13.632;2022-10-26T06:04:24;101164.69;;;16.16;75.09
34237;BME280;20501;45.956;13.632;2022-10-26T06:06:53;101157.41;;;16.24;75.99
34237;BME280;20501;45.956;13.632;2022-10-26T06:09:18;101161.81;;;15.65;76.12
34237;BME280;20501;45.956;13.632;2022-10-26T06:11:44;101172.50;;;14.85;78.92
34237;BME280;20501;45.956;13.632;2022-10-26T06:14:10;101175.47;;;15.10;78.51
34237;BME280;20501;45.956;13.632;2022-10-26T06:16:49;101176.34;;;14.93;79.15
34237;BME280;20501;45.956;13.632;2022-10-26T06:22:22;101179.84;;;15.03;78.22
34237;BME280;20501;45.956;13.632;2022-10-26T06:30:07;101190.16;;;15.17;78.41
34237;BME280;20501;45.956;13.632;2022-10-26T06:32:34;101199.59;;;16.12;78.03
34237;BME280;20501;45.956;13.632;2022-10-26T06:37:51;101197.91;;;14.76;79.52
34237;BME280;20501;45.956;13.632;2022-10-26T06:40:18;101197.75;;;14.78;80.34
34237;BME280;20501;45.956;13.632;2022-10-26T06:42:44;101205.31;;;14.56;80.23
34237;BME280;20501;45.956;13.632;2022-10-26T06:45:14;101210.13;;;14.90;79.93
34237;BME280;20501;45.956;13.632;2022-10-26T06:48:03;101212.53;;;14.93;81.12
34237;BME280;20501;45.956;13.632;2022-10-26T06:50:50;101210.25;;;14.70;80.29
34237;BME280;20501;45.956;13.632;2022-10-26T06:53:40;101208.19;;;15.19;79.49
34237;BME280;20501;45.956;13.632;2022-10-26T06:56:10;101202.59;;;14.84;79.86
34237;BME280;20501;45.956;13.632;2022-10-26T06:58:36;101209.78;;;14.75;79.61
34237;BME280;20501;45.956;13.632;2022-10-26T07:01:03;101212.03;;;15.26;79.25
34237;BME280;20501;45.956;13.632;2022-10-26T07:03:28;101217.06;;;15.02;79.17
34237;BME280;20501;45.956;13.632;2022-10-26T07:05:54;101214.34;;;15.21;78.79
34237;BME280;20501;45.956;13.632;2022-10-26T07:08:19;101219.94;;;16.00;78.83
34237;BME280;20501;45.956;13.632;2022-10-26T07:10:48;101233.72;;;15.36;78.01
34237;BME280;20501;45.956;13.632;2022-10-26T07:13:13;101232.41;;;15.40;79.40
34237;BME280;20501;45.956;13.632;2022-10-26T07:15:39;101237.91;;;15.84;78.41
34237;BME280;20501;45.956;13.632;2022-10-26T07:18:06;101243.50;;;15.10;79.00
34237;BME280;20501;45.956;13.632;2022-10-26T07:20:38;101251.41;;;15.04;79.27
34237;BME280;20501;45.956;13.632;2022-10-26T07:23:04;101253.31;;;15.57;78.89
34237;BME280;20501;45.956;13.632;2022-10-26T07:25:35;101245.63;;;15.16;79.01
34237;BME280;20501;45.956;13.632;2022-10-26T07:28:03;101252.53;;;15.65;79.12
34237;BME280;20501;45.956;13.632;2022-10-26T07:30:29;101250.03;;;15.72;77.90
34237;BME280;20501;45.956;13.632;2022-10-26T07:33:07;101253.47;;;16.18;77.29
34237;BME280;20501;45.956;13.632;2022-10-26T07:35:33;101261.75;;;16.08;76.80
34237;BME280;20501;45.956;13.632;2022-10-26T07:37:59;101266.31;;;16.61;76.08
34237;BME280;20501;45.956;13.632;2022-10-26T07:40:25;101258.78;;;15.21;78.47
34237;BME280;20501;45.956;13.632;2022-10-26T07:42:51;101262.34;;;15.40;77.99
34237;BME280;20501;45.956;13.632;2022-10-26T07:45:18;101257.75;;;15.58;77.26
34237;BME280;20501;45.956;13.632;2022-10-26T07:47:43;101255.19;;;15.57;77.79
34237;BME280;20501;45.956;13.632;2022-10-26T07:50:11;101257.91;;;15.75;78.84
34237;BME280;20501;45.956;13.632;2022-10-26T07:52:36;101256.25;;;15.46;77.50
34237;BME280;20501;45.956;13.632;2022-10-26T07:55:03;101257.75;;;15.58;78.62
34237;BME280;20501;45.956;13.632;2022-10-26T07:57:29;101247.16;;;15.91;78.25
34237;BME280;20501;45.956;13.632;2022-10-26T07:59:55;101252.81;;;15.80;76.61
34237;BME280;20501;45.956;13.632;2022-10-26T08:02:20;101248.25;;;16.25;75.73
34237;BME280;20501;45.956;13.632;2022-10-26T08:04:45;101250.38;;;16.48;75.32
34237;BME280;20501;45.956;13.632;2022-10-26T08:07:11;101256.38;;;16.51;75.31
34237;BME280;20501;45.956;13.632;2022-10-26T08:09:36;101254.31;;;16.53;75.46
34237;BME280;20501;45.956;13.632;2022-10-26T08:12:02;101237.03;;;16.71;75.77
34237;BME280;20501;45.956;13.632;2022-10-26T08:14:27;101241.38;;;16.55;76.01
34237;BME280;20501;45.956;13.632;2022-10-26T08:16:52;101247.19;;;16.95;73.91
34237;BME280;20501;45.956;13.632;2022-10-26T08:19:18;101249.94;;;16.61;75.37
34237;BME280;20501;45.956;13.632;2022-10-26T08:21:44;101243.06;;;16.91;75.75
34237;BME280;20501;45.956;13.632;2022-10-26T08:24:09;101233.75;;;17.10;74.75
34237;BME280;20501;45.956;13.632;2022-10-26T08:26:35;101241.38;;;16.55;76.82
34237;BME280;20501;45.956;13.632;2022-10-26T08:29:01;101244.31;;;16.28;77.32
34237;BME280;20501;45.956;13.632;2022-10-26T08:31:26;101237.03;;;16.36;77.11
34237;BME280;20501;45.956;13.632;2022-10-26T08:33:51;101242.41;;;16.54;76.34
34237;BME280;20501;45.956;13.632;2022-10-26T08:36:23;101248.16;;;16.86;75.94
34237;BME280;20501;45.956;13.632;2022-10-26T08:38:49;101246.41;;;17.28;74.30
34237;BME280;20501;45.956;13.632;2022-10-26T08:41:16;101242.31;;;17.24;74.79
34237;BME280;20501;45.956;13.632;2022-10-26T08:43:47;101250.13;;;17.10;74.88
34237;BME280;20501;45.956;13.632;2022-10-26T08:46:27;101247.72;;;17.07;74.97
34237;BME280;20501;45.956;13.632;2022-10-26T08:49:01;101247.56;;;17.00;76.29
34237;BME280;20501;45.956;13.632;2022-10-26T08:51:31;101256.78;;;16.99;74.90
34237;BME280;20501;45.956;13.632;2022-10-26T08:56:57;101256.69;;;17.34;74.09
34237;BME280;20501;45.956;13.632;2022-10-26T08:59:32;101255.16;;;17.31;74.45
34237;BME280;20501;45.956;13.632;2022-10-26T09:01:58;101256.53;;;17.60;72.81
34237;BME280;20501;45.956;13.632;2022-10-26T09:04:28;101253.78;;;17.77;73.07
34237;BME280;20501;45.956;13.632;2022-10-26T09:06:56;101254.13;;;17.66;73.09
34237;BME280;20501;45.956;13.632;2022-10-26T09:12:35;101246.78;;;17.74;73.16
34237;BME280;20501;45.956;13.632;2022-10-26T09:15:18;101251.22;;;17.84;72.78
34237;BME280;20501;45.956;13.632;2022-10-26T09:18:22;101246.94;;;18.22;72.38
34237;BME280;20501;45.956;13.632;2022-10-26T09:26:12;101250.66;;;18.38;72.08
34237;BME280;20501;45.956;13.632;2022-10-26T09:28:40;101244.28;;;18.54;71.06
34237;BME280;20501;45.956;13.632;2022-10-26T09:31:05;101254.00;;;18.56;71.95
34237;BME280;20501;45.956;13.632;2022-10-26T09:33:35;101261.06;;;18.43;72.24
34237;BME280;20501;45.956;13.632;2022-10-26T09:36:10;101264.84;;;18.41;72.30
34237;BME280;20501;45.956;13.632;2022-10-26T09:44:17;101262.25;;;18.48;73.14
34237;BME280;20501;45.956;13.632;2022-10-26T09:49:44;101260.69;;;18.54;72.92
34237;BME280;20501;45.956;13.632;2022-10-26T09:52:15;101264.78;;;18.58;72.43
34237;BME280;20501;45.956;13.632;2022-10-26T09:54:40;101263.97;;;18.49;73.07
34237;BME280;20501;45.956;13.632;2022-10-26T09:57:06;101267.19;;;18.53;73.21
34237;BME280;20501;45.956;13.632;2022-10-26T09:59:36;101276.44;;;18.52;73.53
34237;BME280;20501;45.956;13.632;2022-10-26T10:02:39;101272.78;;;18.68;72.26
34237;BME280;20501;45.956;13.632;2022-10-26T10:07:45;101285.59;;;18.76;73.93
34237;BME280;20501;45.956;13.632;2022-10-26T10:10:20;101286.56;;;18.83;74.15
34237;BME280;20501;45.956;13.632;2022-10-26T10:12:47;101290.69;;;18.87;74.03
34237;BME280;20501;45.956;13.632;2022-10-26T10:15:23;101280.56;;;18.96;73.13
34237;BME280;20501;45.956;13.632;2022-10-26T10:17:50;101275.91;;;19.36;72.69
34237;BME280;20501;45.956;13.632;2022-10-26T10:20:28;101271.25;;;19.37;71.54
34237;BME280;20501;45.956;13.632;2022-10-26T10:22:57;101281.84;;;19.16;72.63
34237;BME280;20501;45.956;13.632;2022-10-26T10:25:37;101271.72;;;19.17;71.58
34237;BME280;20501;45.956;13.632;2022-10-26T10:28:22;101266.81;;;19.36;70.93
34237;BME280;20501;45.956;13.632;2022-10-26T10:30:57;101269.00;;;19.17;71.25
34237;BME280;20501;45.956;13.632;2022-10-26T10:33:32;101274.66;;;19.39;71.51
34237;BME280;20501;45.956;13.632;2022-10-26T10:35:59;101265.69;;;19.53;70.84
34237;BME280;20501;45.956;13.632;2022-10-26T10:38:25;101259.94;;;19.40;72.93
34237;BME280;20501;45.956;13.632;2022-10-26T10:40:54;101261.06;;;19.22;73.26
34237;BME280;20501;45.956;13.632;2022-10-26T10:43:21;101260.72;;;19.25;71.93
34237;BME280;20501;45.956;13.632;2022-10-26T10:45:48;101267.53;;;19.29;72.16
34237;BME280;20501;45.956;13.632;2022-10-26T10:48:17;101264.31;;;19.72;69.90
34237;BME280;20501;45.956;13.632;2022-10-26T10:50:59;101262.50;;;19.64;70.42
34237;BME280;20501;45.956;13.632;2022-10-26T10:53:46;101260.41;;;19.67;70.97
34237;BME280;20501;45.956;13.632;2022-10-26T10:56:26;101266.94;;;19.42;71.42
34237;BME280;20501;45.956;13.632;2022-10-26T11:02:01;101264.38;;;19.64;70.62
34237;BME280;20501;45.956;13.632;2022-10-26T11:05:12;101267.91;;;19.49;71.89
34237;BME280;20501;45.956;13.632;2022-10-26T11:07:31;101269.31;;;19.69;71.07
34237;BME280;20501;45.956;13.632;2022-10-26T11:10:02;101257.31;;;19.70;70.89
34237;BME280;20501;45.956;13.632;2022-10-26T11:12:32;101257.06;;;19.56;71.93
34237;BME280;20501;45.956;13.632;2022-10-26T11:15:02;101260.25;;;19.68;72.00
34237;BME280;20501;45.956;13.632;2022-10-26T11:17:35;101259.34;;;19.76;71.36
34237;BME280;20501;45.956;13.632;2022-10-26T11:20:16;101259.25;;;19.84;72.33
34237;BME280;20501;45.956;13.632;2022-10-26T11:26:07;101257.97;;;19.95;72.42
34237;BME280;20501;45.956;13.632;2022-10-26T11:28:53;101252.97;;;19.99;70.81
34237;BME280;20501;45.956;13.632;2022-10-26T11:31:25;101252.00;;;19.91;71.80
34237;BME280;20501;45.956;13.632;2022-10-26T11:34:04;101252.75;;;19.85;72.14
34237;BME280;20501;45.956;13.632;2022-10-26T11:36:33;101250.47;;;19.65;73.29
34237;BME280;20501;45.956;13.632;2022-10-26T11:41:56;101253.72;;;19.92;72.27
34237;BME280;20501;45.956;13.632;2022-10-26T11:44:34;101261.47;;;19.89;72.68
34237;BME280;20501;45.956;13.632;2022-10-26T11:49:49;101261.31;;;19.82;72.13
34237;BME280;20501;45.956;13.632;2022-10-26T11:55:14;101253.28;;;20.19;70.52
34237;BME280;20501;45.956;13.632;2022-10-26T11:57:40;101256.13;;;20.25;70.17
34237;BME280;20501;45.956;13.632;2022-10-26T12:00:16;101266.50;;;20.00;70.63
34237;BME280;20501;45.956;13.632;2022-10-26T12:05:41;101259.59;;;20.04;69.64
34237;BME280;20501;45.956;13.632;2022-10-26T12:11:32;101261.84;;;20.01;69.70
34237;BME280;20501;45.956;13.632;2022-10-26T12:16:46;101274.66;;;20.08;69.74
34237;BME280;20501;45.956;13.632;2022-10-26T12:19:24;101267.25;;;20.09;69.37
34237;BME280;20501;45.956;13.632;2022-10-26T12:21:52;101265.03;;;20.13;69.50
34237;BME280;20501;45.956;13.632;2022-10-26T12:27:08;101261.19;;;19.99;69.83
34237;BME280;20501;45.956;13.632;2022-10-26T12:30:13;101252.91;;;20.22;69.00
34237;BME280;20501;45.956;13.632;2022-10-26T12:37:52;101253.34;;;19.72;71.44
34237;BME280;20501;45.956;13.632;2022-10-26T12:42:55;101247.56;;;19.67;72.92
34237;BME280;20501;45.956;13.632;2022-10-26T12:45:21;101254.22;;;19.73;72.51
34237;BME280;20501;45.956;13.632;2022-10-26T12:52:53;101242.28;;;19.42;73.77
34237;BME280;20501;45.956;13.632;2022-10-26T13:01:10;101250.38;;;19.12;74.23
34237;BME280;20501;45.956;13.632;2022-10-26T13:09:28;101238.88;;;19.17;74.96
34237;BME280;20501;45.956;13.632;2022-10-26T13:11:55;101233.59;;;19.07;76.12
34237;BME280;20501;45.956;13.632;2022-10-26T13:14:27;101243.03;;;19.05;74.61
34237;BME280;20501;45.956;13.632;2022-10-26T13:16:55;101246.81;;;19.03;75.49
34237;BME280;20501;45.956;13.632;2022-10-26T13:19:26;101248.22;;;18.99;74.88
34237;BME280;20501;45.956;13.632;2022-10-26T13:21:57;101249.56;;;19.03;74.89
34237;BME280;20501;45.956;13.632;2022-10-26T13:24:25;101249.38;;;19.05;76.20
34237;BME280;20501;45.956;13.632;2022-10-26T13:32:48;101238.44;;;19.05;76.31
34237;BME280;20501;45.956;13.632;2022-10-26T13:35:16;101241.66;;;19.09;75.84
34237;BME280;20501;45.956;13.632;2022-10-26T13:37:46;101242.34;;;19.11;76.38
34237;BME280;20501;45.956;13.632;2022-10-26T13:40:16;101242.50;;;19.09;75.11
34237;BME280;20501;45.956;13.632;2022-10-26T13:42:48;101242.81;;;19.14;74.80
34237;BME280;20501;45.956;13.632;2022-10-26T13:45:17;101238.53;;;19.12;75.84
34237;BME280;20501;45.956;13.632;2022-10-26T13:47:46;101239.94;;;19.08;76.26
34237;BME280;20501;45.956;13.632;2022-10-26T13:50:16;101242.50;;;19.09;75.97
34237;BME280;20501;45.956;13.632;2022-10-26T13:52:46;101238.53;;;19.12;76.14
34237;BME280;20501;45.956;13.632;2022-10-26T13:55:23;101244.69;;;19.14;75.49
34237;BME280;20501;45.956;13.632;2022-10-26T13:58:16;101239.81;;;19.32;74.66
34237;BME280;20501;45.956;13.632;2022-10-26T14:01:11;101241.66;;;19.32;74.91
34237;BME280;20501;45.956;13.632;2022-10-26T14:03:37;101241.47;;;19.33;74.69
34237;BME280;20501;45.956;13.632;2022-10-26T14:06:21;101230.72;;;19.32;74.20
34237;BME280;20501;45.956;13.632;2022-10-26T14:08:49;101230.41;;;19.27;74.93
34237;BME280;20501;45.956;13.632;2022-10-26T14:11:19;101234.13;;;19.57;73.26
34237;BME280;20501;45.956;13.632;2022-10-26T14:13:49;101241.59;;;19.40;74.56
34237;BME280;20501;45.956;13.632;2022-10-26T14:16:16;101245.09;;;19.34;74.45
34237;BME280;20501;45.956;13.632;2022-10-26T14:18:47;101237.00;;;19.41;73.93
34237;BME280;20501;45.956;13.632;2022-10-26T14:21:20;101238.75;;;19.33;73.85
34237;BME280;20501;45.956;13.632;2022-10-26T14:26:24;101242.75;;;19.46;73.20
34237;BME280;20501;45.956;13.632;2022-10-26T14:28:55;101241.72;;;19.47;73.03
34237;BME280;20501;45.956;13.632;2022-10-26T14:33:48;101241.97;;;19.60;71.90
34237;BME280;20501;45.956;13.632;2022-10-26T14:36:15;101253.03;;;19.44;73.16
34237;BME280;20501;45.956;13.632;2022-10-26T14:38:46;101251.38;;;19.43;72.77
34237;BME280;20501;45.956;13.632;2022-10-26T14:41:16;101249.59;;;19.50;72.59
34237;BME280;20501;45.956;13.632;2022-10-26T14:43:43;101255.13;;;19.65;71.50
34237;BME280;20501;45.956;13.632;2022-10-26T14:46:16;101249.22;;;19.30;73.03
34237;BME280;20501;45.956;13.632;2022-10-26T14:48:56;101258.59;;;19.36;73.96
34237;BME280;20501;45.956;13.632;2022-10-26T14:51:28;101251.72;;;19.40;73.03
34237;BME280;20501;45.956;13.632;2022-10-26T14:53:56;101256.66;;;19.44;73.80
34237;BME280;20501;45.956;13.632;2022-10-26T14:59:08;101262.34;;;19.34;74.46
34237;BME280;20501;45.956;13.632;2022-10-26T15:02:31;101270.63;;;19.26;74.71
34237;BME280;20501;45.956;13.632;2022-10-26T15:04:37;101266.81;;;19.36;75.79
34237;BME280;20501;45.956;13.632;2022-10-26T15:09:43;101267.22;;;19.24;75.44